createdAt,value
2018-10-07T00:00:43.241Z,56.16
2018-10-07T00:03:11.860Z,56.31
2018-10-07T00:05:40.537Z,56.52
2018-10-07T00:08:09.167Z,56.10
2018-10-07T00:10:37.756Z,56.65
2018-10-07T00:13:06.452Z,56.17
2018-10-07T00:15:35.055Z,56.34
2018-10-07T00:18:04.153Z,56.38
2018-10-07T00:20:32.764Z,55.92
2018-10-07T00:23:01.356Z,56.28
2018-10-07T00:25:30.006Z,55.90
2018-10-07T00:27:58.653Z,56.00
2018-10-07T00:30:27.268Z,56.25
2018-10-07T00:32:55.859Z,55.93
2018-10-07T00:35:24.648Z,56.14
2018-10-07T00:37:53.217Z,55.71
2018-10-07T00:40:21.785Z,56.22
2018-10-07T00:42:50.419Z,56.20
2018-10-07T00:45:19.652Z,56.04
2018-10-07T00:47:48.232Z,55.88
2018-10-07T00:50:16.951Z,55.83
2018-10-07T00:52:46.462Z,55.43
2018-10-07T00:55:16.154Z,55.25
2018-10-07T00:57:47.077Z,55.06
2018-10-07T01:00:16.266Z,55.78
2018-10-07T01:02:46.883Z,55.97
2018-10-07T01:05:16.630Z,55.56
2018-10-07T01:07:47.650Z,55.65
2018-10-07T01:10:16.319Z,55.79
2018-10-07T01:12:44.944Z,55.51
2018-10-07T01:15:13.580Z,55.46
2018-10-07T01:17:42.298Z,56.02
2018-10-07T01:20:10.893Z,55.91
2018-10-07T01:22:39.643Z,55.59
2018-10-07T01:25:08.215Z,56.07
2018-10-07T01:27:36.827Z,55.65
2018-10-07T01:30:05.899Z,55.83
2018-10-07T01:32:34.468Z,55.84
2018-10-07T01:35:03.075Z,55.75
2018-10-07T01:37:31.684Z,55.85
2018-10-07T01:40:00.264Z,56.51
2018-10-07T01:42:28.840Z,56.12
2018-10-07T01:44:57.592Z,56.64
2018-10-07T01:47:26.186Z,56.55
2018-10-07T01:49:54.777Z,56.91
2018-10-07T01:52:23.453Z,56.77
2018-10-07T01:54:52.040Z,56.79
2018-10-07T01:57:20.686Z,56.86
2018-10-07T01:59:49.336Z,56.67
2018-10-07T02:02:17.925Z,56.96
2018-10-07T02:04:46.536Z,57.14
2018-10-07T02:07:15.224Z,57.21
2018-10-07T02:09:43.809Z,56.74
2018-10-07T02:12:12.392Z,57.15
2018-10-07T02:14:41.079Z,57.22
2018-10-07T02:17:09.679Z,57.67
2018-10-07T02:19:38.292Z,57.14
2018-10-07T02:22:06.956Z,56.93
2018-10-07T02:24:35.539Z,57.62
2018-10-07T02:27:04.152Z,57.13
2018-10-07T02:29:32.852Z,57.02
2018-10-07T02:32:01.457Z,56.88
2018-10-07T02:34:30.057Z,56.98
2018-10-07T02:36:59.167Z,57.23
2018-10-07T02:39:27.744Z,57.48
2018-10-07T02:41:56.336Z,57.73
2018-10-07T02:44:24.939Z,57.71
2018-10-07T02:46:53.507Z,58.17
2018-10-07T02:49:22.091Z,58.05
2018-10-07T02:51:50.786Z,58.55
2018-10-07T02:54:19.391Z,58.64
2018-10-07T02:56:47.966Z,59.01
2018-10-07T02:59:17.527Z,58.86
2018-10-07T03:01:46.117Z,58.80
2018-10-07T03:04:14.732Z,58.83
2018-10-07T03:06:43.594Z,58.86
2018-10-07T03:09:12.187Z,59.20
2018-10-07T03:11:40.873Z,59.30
2018-10-07T03:14:09.488Z,59.28
2018-10-07T03:16:38.244Z,59.46
2018-10-07T03:19:07.013Z,59.65
2018-10-07T03:21:35.980Z,59.82
2018-10-07T03:24:04.545Z,59.89
2018-10-07T03:26:33.160Z,60.03
2018-10-07T03:29:01.760Z,60.17
2018-10-07T03:31:30.349Z,60.43
2018-10-07T03:33:59.568Z,60.55
2018-10-07T03:36:28.267Z,60.69
2018-10-07T03:38:56.855Z,60.60
2018-10-07T03:41:25.512Z,60.49
2018-10-07T03:43:54.267Z,60.32
2018-10-07T03:46:22.836Z,60.48
2018-10-07T03:48:51.404Z,60.52
2018-10-07T03:51:20.035Z,60.51
2018-10-07T03:53:48.623Z,60.64
2018-10-07T03:56:17.215Z,60.75
2018-10-07T03:58:45.812Z,60.67
2018-10-07T04:01:14.452Z,60.45
2018-10-07T04:03:43.423Z,60.13
2018-10-07T04:06:12.060Z,60.37
2018-10-07T04:08:40.636Z,60.41
2018-10-07T04:11:09.259Z,60.34
2018-10-07T04:13:38.076Z,60.33
2018-10-07T04:16:06.712Z,60.61
2018-10-07T04:18:35.272Z,60.98
2018-10-07T04:21:04.016Z,61.01
2018-10-07T04:23:32.574Z,61.22
2018-10-07T04:26:01.236Z,61.16
2018-10-07T04:28:29.844Z,61.27
2018-10-07T04:30:58.428Z,61.65
2018-10-07T04:33:27.020Z,61.06
2018-10-07T04:35:55.911Z,61.50
2018-10-07T04:38:24.476Z,61.76
2018-10-07T04:40:53.043Z,61.89
2018-10-07T04:43:22.372Z,61.52
2018-10-07T04:45:50.952Z,61.20
2018-10-07T04:48:19.519Z,61.53
2018-10-07T04:50:48.588Z,61.35
2018-10-07T04:53:17.168Z,61.73
2018-10-07T04:55:45.749Z,61.23
2018-10-07T04:58:14.688Z,61.55
2018-10-07T05:00:43.907Z,61.64
2018-10-07T05:03:12.479Z,61.72
2018-10-07T05:05:41.236Z,61.81
2018-10-07T05:08:09.830Z,61.46
2018-10-07T05:10:48.807Z,62.22
2018-10-07T05:13:24.636Z,62.37
2018-10-07T05:16:03.683Z,62.67
2018-10-07T05:18:32.400Z,62.10
2018-10-07T05:21:01.061Z,62.74
2018-10-07T05:23:29.752Z,62.07
2018-10-07T05:25:58.338Z,62.34
2018-10-07T05:28:26.932Z,62.25
2018-10-07T05:30:55.739Z,61.86
2018-10-07T05:33:24.588Z,61.83
2018-10-07T05:35:53.106Z,61.63
2018-10-07T05:38:21.815Z,62.45
2018-10-07T05:40:50.372Z,62.44
2018-10-07T05:43:19.094Z,62.34
2018-10-07T05:45:47.704Z,62.46
2018-10-07T05:48:16.284Z,62.26
2018-10-07T05:50:44.938Z,62.68
2018-10-07T05:53:13.759Z,62.83
2018-10-07T05:55:42.437Z,62.96
2018-10-07T05:58:11.148Z,62.80
2018-10-07T06:00:40.106Z,62.50
2018-10-07T06:03:19.642Z,62.80
2018-10-07T06:05:48.387Z,62.39
2018-10-07T06:08:18.762Z,62.18
2018-10-07T06:10:47.372Z,62.77
2018-10-07T06:13:16.316Z,62.18
2018-10-07T06:15:45.079Z,62.31
2018-10-07T06:18:13.684Z,62.20
2018-10-07T06:20:42.429Z,62.17
2018-10-07T06:23:11.048Z,62.19
2018-10-07T06:25:39.644Z,62.34
2018-10-07T06:28:08.645Z,62.85
2018-10-07T06:30:37.239Z,62.63
2018-10-07T06:33:05.841Z,62.15
2018-10-07T06:35:34.467Z,62.43
2018-10-07T06:38:03.069Z,62.49
2018-10-07T06:40:31.649Z,62.28
2018-10-07T06:43:00.373Z,62.16
2018-10-07T06:45:28.971Z,62.35
2018-10-07T06:47:57.632Z,61.79
2018-10-07T06:50:26.227Z,61.78
2018-10-07T06:52:54.796Z,61.59
2018-10-07T06:55:23.364Z,61.29
2018-10-07T06:57:52.055Z,61.24
2018-10-07T07:00:20.629Z,60.50
2018-10-07T07:02:49.232Z,60.20
2018-10-07T07:05:18.071Z,59.59
2018-10-07T07:07:46.645Z,59.45
2018-10-07T07:10:15.211Z,58.62
2018-10-07T07:12:44.024Z,57.64
2018-10-07T07:15:12.592Z,56.24
2018-10-07T07:17:41.169Z,54.83
2018-10-07T07:20:09.810Z,53.42
2018-10-07T07:22:38.404Z,51.84
2018-10-07T07:25:07.039Z,50.80
2018-10-07T07:27:35.743Z,50.32
2018-10-07T07:30:05.134Z,49.59
2018-10-07T07:32:33.703Z,48.15
2018-10-07T07:35:02.339Z,47.68
2018-10-07T07:37:31.051Z,47.57
2018-10-07T07:39:59.619Z,47.18
2018-10-07T07:42:28.466Z,47.91
2018-10-07T07:44:56.988Z,48.25
2018-10-07T07:47:25.547Z,47.82
2018-10-07T07:49:54.155Z,48.59
2018-10-07T07:52:22.711Z,47.70
2018-10-07T07:54:51.387Z,48.19
2018-10-07T07:57:20.012Z,47.67
2018-10-07T07:59:48.577Z,47.36
2018-10-07T08:02:17.193Z,46.33
2018-10-07T08:04:45.856Z,46.94
2018-10-07T08:07:14.413Z,47.06
2018-10-07T08:09:42.992Z,46.04
2018-10-07T08:12:11.606Z,45.25
2018-10-07T08:14:40.176Z,44.16
2018-10-07T08:17:08.751Z,44.80
2018-10-07T08:19:37.415Z,43.40
2018-10-07T08:22:06.131Z,43.38
2018-10-07T08:24:34.740Z,43.26
2018-10-07T08:27:03.485Z,43.63
2018-10-07T08:29:32.104Z,43.65
2018-10-07T08:32:00.659Z,42.17
2018-10-07T08:34:29.358Z,41.90
2018-10-07T08:36:57.926Z,41.03
2018-10-07T08:39:26.528Z,40.91
2018-10-07T08:41:55.735Z,40.51
2018-10-07T08:44:24.335Z,39.59
2018-10-07T08:46:52.921Z,39.97
2018-10-07T08:49:22.072Z,39.27
2018-10-07T08:51:50.660Z,39.01
2018-10-07T08:54:19.250Z,38.42
2018-10-07T08:56:47.940Z,37.95
2018-10-07T08:59:16.512Z,38.44
2018-10-07T09:01:45.100Z,38.51
2018-10-07T09:04:14.066Z,38.36
2018-10-07T09:06:42.760Z,38.10
2018-10-07T09:09:12.051Z,38.24
2018-10-07T09:11:41.108Z,38.49
2018-10-07T09:14:10.146Z,37.42
2018-10-07T09:16:38.744Z,36.15
2018-10-07T09:19:07.472Z,37.11
2018-10-07T09:21:36.243Z,38.06
2018-10-07T09:24:04.819Z,37.82
2018-10-07T09:26:33.552Z,37.58
2018-10-07T09:29:02.215Z,37.88
2018-10-07T09:31:31.420Z,36.74
2018-10-07T09:34:00.453Z,36.33
2018-10-07T09:36:29.027Z,34.93
2018-10-07T09:38:57.609Z,34.84
2018-10-07T09:41:26.240Z,34.14
2018-10-07T09:43:54.827Z,34.70
2018-10-07T09:46:23.521Z,35.01
2018-10-07T09:48:52.568Z,34.37
2018-10-07T09:51:21.179Z,33.13
2018-10-07T09:53:49.809Z,33.79
2018-10-07T09:56:18.614Z,34.00
2018-10-07T09:58:47.230Z,33.41
2018-10-07T10:01:15.914Z,31.71
2018-10-07T10:03:44.551Z,31.20
2018-10-07T10:06:13.185Z,30.42
2018-10-07T10:08:41.733Z,29.86
2018-10-07T10:11:10.482Z,30.19
2018-10-07T10:13:38.980Z,30.21
2018-10-07T10:16:07.587Z,28.87
2018-10-07T10:18:44.163Z,28.48
2018-10-07T10:21:26.045Z,28.44
2018-10-07T10:24:14.763Z,29.41
2018-10-07T10:27:05.048Z,30.62
2018-10-07T10:29:37.496Z,30.44
2018-10-07T10:32:11.284Z,29.35
2018-10-07T10:34:52.980Z,29.41
2018-10-07T10:37:28.996Z,30.67
2018-10-07T10:40:00.588Z,30.41
2018-10-07T10:44:06.900Z,30.41
2018-10-07T10:46:41.889Z,30.37
2018-10-07T10:51:21.494Z,29.91
2018-10-07T10:53:53.352Z,30.30
2018-10-07T10:56:26.605Z,32.10
2018-10-07T11:00:10.412Z,33.20
2018-10-07T11:02:46.192Z,33.09
2018-10-07T11:05:26.024Z,33.70
2018-10-07T11:08:00.773Z,32.59
2018-10-07T11:11:42.070Z,31.20
2018-10-07T11:14:33.671Z,29.10
2018-10-07T11:18:13.713Z,27.06
2018-10-07T11:22:57.704Z,25.01
2018-10-07T11:25:38.933Z,23.19
2018-10-07T11:28:19.809Z,23.40
2018-10-07T11:30:59.769Z,21.38
2018-10-07T11:35:39.341Z,21.77
2018-10-07T11:38:15.890Z,21.07
2018-10-07T11:41:07.513Z,20.76
2018-10-07T11:43:44.995Z,18.51
2018-10-07T11:46:29.046Z,18.89
2018-10-07T11:49:04.689Z,17.15
2018-10-07T11:51:38.297Z,16.51
2018-10-07T11:54:12.120Z,15.37
2018-10-07T11:56:41.055Z,15.63
2018-10-07T11:59:09.748Z,18.26
2018-10-07T12:01:38.395Z,19.59
2018-10-07T12:04:06.970Z,22.33
2018-10-07T12:06:35.576Z,24.17
2018-10-07T12:09:05.399Z,27.48
2018-10-07T12:11:33.967Z,29.57
2018-10-07T12:14:02.557Z,31.40
2018-10-07T12:16:31.309Z,32.80
2018-10-07T12:18:59.802Z,33.97
2018-10-07T12:21:28.374Z,34.68
2018-10-07T12:23:57.047Z,34.26
2018-10-07T12:26:25.611Z,34.36
2018-10-07T12:28:54.233Z,34.56
2018-10-07T12:31:22.928Z,34.24
2018-10-07T12:33:51.516Z,34.19
2018-10-07T12:36:20.097Z,34.26
2018-10-07T12:38:48.791Z,35.40
2018-10-07T12:41:17.360Z,36.20
2018-10-07T12:43:45.952Z,36.86
2018-10-07T12:46:14.696Z,36.77
2018-10-07T12:48:43.272Z,36.98
2018-10-07T12:51:11.842Z,36.74
2018-10-07T12:53:40.627Z,36.97
2018-10-07T12:56:09.396Z,36.56
2018-10-07T12:58:38.004Z,36.95
2018-10-07T13:01:07.347Z,37.45
2018-10-07T13:03:35.928Z,37.70
2018-10-07T13:06:04.528Z,38.34
2018-10-07T13:08:33.219Z,38.33
2018-10-07T13:11:01.803Z,38.49
2018-10-07T13:13:30.392Z,38.77
2018-10-07T13:15:59.079Z,38.02
2018-10-07T13:18:27.624Z,37.50
2018-10-07T13:20:56.192Z,38.16
2018-10-07T13:23:24.892Z,38.45
2018-10-07T13:25:53.816Z,37.98
2018-10-07T13:28:22.394Z,38.36
2018-10-07T13:30:51.097Z,39.16
2018-10-07T13:33:20.203Z,38.58
2018-10-07T13:35:49.270Z,38.25
2018-10-07T13:38:18.398Z,38.99
2018-10-07T13:40:46.975Z,39.05
2018-10-07T13:43:15.976Z,39.32
2018-10-07T13:45:44.671Z,39.70
2018-10-07T13:48:13.254Z,39.90
2018-10-07T13:50:41.883Z,39.62
2018-10-07T13:53:10.560Z,39.64
2018-10-07T13:55:39.231Z,40.38
2018-10-07T13:58:09.830Z,40.28
2018-10-07T14:00:39.415Z,40.69
2018-10-07T14:03:08.976Z,40.48
2018-10-07T14:05:39.763Z,40.45
2018-10-07T14:08:09.540Z,40.67
2018-10-07T14:10:40.773Z,40.28
2018-10-07T14:13:09.956Z,40.61
2018-10-07T14:15:39.303Z,41.13
2018-10-07T14:18:09.039Z,40.84
2018-10-07T14:20:39.140Z,41.05
2018-10-07T14:23:09.401Z,40.78
2018-10-07T14:25:40.943Z,41.42
2018-10-07T14:28:10.652Z,41.55
2018-10-07T14:30:40.064Z,41.16
2018-10-07T14:33:10.551Z,41.21
2018-10-07T14:35:40.676Z,40.92
2018-10-07T14:38:09.303Z,41.34
2018-10-07T14:40:40.093Z,41.56
2018-10-07T14:43:10.091Z,41.00
2018-10-07T14:45:40.056Z,41.37
2018-10-07T14:48:10.074Z,41.32
2018-10-07T14:50:40.920Z,41.41
2018-10-07T14:53:12.878Z,41.14
2018-10-07T14:55:41.580Z,41.85
2018-10-07T14:58:10.167Z,41.96
2018-10-07T15:00:39.455Z,41.62
2018-10-07T15:03:09.383Z,41.55
2018-10-07T15:05:39.091Z,41.96
2018-10-07T15:08:09.191Z,41.34
2018-10-07T15:10:39.754Z,41.61
2018-10-07T15:13:10.327Z,41.61
2018-10-07T15:15:40.391Z,41.60
2018-10-07T15:18:10.739Z,41.62
2018-10-07T15:20:40.432Z,42.31
2018-10-07T15:23:09.003Z,42.07
2018-10-07T15:25:39.471Z,42.30
2018-10-07T15:28:08.916Z,42.62
2018-10-07T15:30:38.423Z,42.14
2018-10-07T15:33:08.024Z,42.62
2018-10-07T15:35:37.590Z,42.84
2018-10-07T15:38:07.497Z,42.37
2018-10-07T15:40:37.898Z,42.73
2018-10-07T15:43:08.076Z,42.92
2018-10-07T15:45:37.840Z,42.49
2018-10-07T15:48:08.977Z,43.16
2018-10-07T15:50:38.991Z,43.25
2018-10-07T15:53:09.103Z,43.04
2018-10-07T15:55:39.576Z,43.66
2018-10-07T15:58:09.324Z,44.02
2018-10-07T16:00:38.534Z,43.63
2018-10-07T16:03:08.553Z,44.25
2018-10-07T16:05:37.199Z,44.50
2018-10-07T16:08:08.226Z,43.82
2018-10-07T16:10:37.100Z,44.12
2018-10-07T16:13:05.964Z,45.00
2018-10-07T16:15:35.111Z,44.87
2018-10-07T16:18:04.551Z,44.97
2018-10-07T16:20:34.446Z,44.89
2018-10-07T16:23:04.315Z,44.71
2018-10-07T16:25:34.275Z,44.93
2018-10-07T16:28:04.116Z,45.42
2018-10-07T16:30:34.368Z,45.55
2018-10-07T16:33:02.959Z,45.41
2018-10-07T16:35:31.543Z,45.84
2018-10-07T16:38:00.220Z,46.08
2018-10-07T16:40:28.853Z,45.92
2018-10-07T16:42:59.251Z,46.08
2018-10-07T16:45:29.267Z,45.69
2018-10-07T16:47:58.707Z,45.56
2018-10-07T16:50:27.808Z,46.65
2018-10-07T16:52:57.650Z,45.96
2018-10-07T16:55:28.050Z,46.01
2018-10-07T16:57:58.051Z,46.19
2018-10-07T17:00:28.308Z,46.95
2018-10-07T17:02:58.861Z,46.64
2018-10-07T17:05:27.987Z,46.55
2018-10-07T17:07:57.659Z,47.40
2018-10-07T17:10:27.797Z,47.96
2018-10-07T17:12:57.942Z,48.37
2018-10-07T17:15:27.249Z,48.55
2018-10-07T17:17:56.966Z,48.67
2018-10-07T17:20:26.828Z,49.43
2018-10-07T17:22:55.764Z,48.95
2018-10-07T17:25:26.055Z,49.04
2018-10-07T17:27:55.636Z,48.88
2018-10-07T17:30:24.620Z,49.39
2018-10-07T17:32:54.111Z,50.11
2018-10-07T17:35:22.680Z,49.64
2018-10-07T17:37:51.361Z,49.84
2018-10-07T17:40:19.971Z,49.57
2018-10-07T17:42:48.625Z,50.73
2018-10-07T17:45:17.168Z,50.16
2018-10-07T17:47:45.808Z,50.30
2018-10-07T17:50:14.384Z,51.34
2018-10-07T17:52:42.972Z,51.08
2018-10-07T17:55:11.672Z,50.69
2018-10-07T17:57:40.454Z,51.05
2018-10-07T18:00:09.101Z,51.44
2018-10-07T18:02:38.248Z,51.83
2018-10-07T18:05:07.968Z,51.42
2018-10-07T18:07:37.688Z,52.20
2018-10-07T18:10:07.275Z,52.07
2018-10-07T18:12:36.477Z,52.30
2018-10-07T18:15:05.427Z,52.27
2018-10-07T18:17:34.403Z,52.22
2018-10-07T18:20:04.128Z,52.70
2018-10-07T18:22:35.624Z,52.74
2018-10-07T18:25:05.063Z,52.26
2018-10-07T18:27:34.195Z,52.58
2018-10-07T18:30:04.289Z,52.39
2018-10-07T18:32:34.464Z,52.93
2018-10-07T18:35:03.379Z,52.86
2018-10-07T18:37:31.968Z,53.24
2018-10-07T18:40:03.238Z,52.63
2018-10-07T18:42:31.899Z,53.38
2018-10-07T18:45:03.315Z,52.96
2018-10-07T18:47:34.434Z,52.65
2018-10-07T18:50:05.606Z,52.78
2018-10-07T18:52:35.920Z,53.49
2018-10-07T18:55:08.154Z,53.70
2018-10-07T18:57:38.203Z,53.65
2018-10-07T19:00:09.992Z,53.41
2018-10-07T19:02:38.753Z,53.72
2018-10-07T19:05:10.932Z,53.83
2018-10-07T19:07:40.982Z,53.70
2018-10-07T19:10:10.632Z,53.93
2018-10-07T19:12:40.188Z,54.06
2018-10-07T19:15:09.876Z,53.99
2018-10-07T19:17:39.440Z,54.06
2018-10-07T19:20:09.993Z,54.18
2018-10-07T19:22:39.914Z,53.89
2018-10-07T19:25:11.893Z,54.67
2018-10-07T19:27:43.477Z,54.73
2018-10-07T19:30:12.320Z,54.97
2018-10-07T19:32:41.187Z,54.75
2018-10-07T19:35:10.912Z,55.27
2018-10-07T19:37:41.603Z,54.67
2018-10-07T19:40:12.680Z,55.25
2018-10-07T19:42:46.218Z,55.40
2018-10-07T19:45:16.324Z,55.20
2018-10-07T19:47:47.593Z,55.53
2018-10-07T19:50:18.430Z,55.82
2018-10-07T19:52:49.108Z,56.19
2018-10-07T19:55:20.961Z,56.11
2018-10-07T19:57:52.135Z,55.82
2018-10-07T20:00:24.126Z,55.88
2018-10-07T20:02:54.168Z,56.25
2018-10-07T20:05:22.808Z,56.38
2018-10-07T20:07:51.424Z,56.45
2018-10-07T20:10:20.028Z,56.67
2018-10-07T20:12:48.647Z,56.66
2018-10-07T20:15:17.236Z,56.63
2018-10-07T20:17:45.855Z,56.70
2018-10-07T20:20:14.472Z,56.18
2018-10-07T20:22:43.068Z,56.28
2018-10-07T20:25:11.653Z,56.82
2018-10-07T20:27:40.632Z,56.33
2018-10-07T20:30:09.193Z,56.69
2018-10-07T20:32:39.962Z,56.74
2018-10-07T20:35:08.662Z,56.52
2018-10-07T20:37:37.288Z,56.52
2018-10-07T20:40:06.596Z,56.40
2018-10-07T20:42:35.148Z,56.57
2018-10-07T20:45:03.732Z,56.87
2018-10-07T20:47:32.545Z,57.00
2018-10-07T20:50:01.151Z,56.95
2018-10-07T20:52:29.930Z,56.57
2018-10-07T20:54:58.742Z,57.10
2018-10-07T20:57:27.528Z,57.24
2018-10-07T20:59:56.122Z,57.48
2018-10-07T21:02:24.822Z,57.50
2018-10-07T21:04:53.395Z,57.37
2018-10-07T21:07:22.113Z,57.70
2018-10-07T21:09:50.824Z,57.27
2018-10-07T21:12:19.462Z,57.52
2018-10-07T21:14:48.069Z,57.76
2018-10-07T21:17:16.700Z,57.99
2018-10-07T21:19:45.299Z,58.13
2018-10-07T21:22:13.888Z,58.60
2018-10-07T21:24:42.573Z,58.54
2018-10-07T21:27:11.684Z,58.60
2018-10-07T21:29:40.347Z,58.72
2018-10-07T21:32:09.168Z,58.92
2018-10-07T21:34:37.941Z,59.12
2018-10-07T21:37:07.092Z,58.75
2018-10-07T21:39:36.219Z,58.92
2018-10-07T21:42:04.944Z,58.87
2018-10-07T21:44:33.583Z,58.54
2018-10-07T21:47:02.280Z,58.54
2018-10-07T21:49:30.847Z,58.42
2018-10-07T21:51:59.451Z,58.42
2018-10-07T21:54:28.408Z,58.39
2018-10-07T21:56:57.125Z,58.50
2018-10-07T21:59:25.700Z,58.62
2018-10-07T22:01:54.480Z,58.48
2018-10-07T22:04:23.051Z,58.75
2018-10-07T22:06:51.801Z,58.70
2018-10-07T22:09:20.778Z,58.62
2018-10-07T22:11:49.355Z,58.54
2018-10-07T22:14:17.976Z,58.66
2018-10-07T22:16:46.705Z,58.56
2018-10-07T22:19:15.299Z,58.74
2018-10-07T22:21:43.904Z,58.64
2018-10-07T22:24:12.889Z,58.85
2018-10-07T22:26:41.620Z,58.73
2018-10-07T22:29:10.213Z,58.66
2018-10-07T22:31:38.968Z,58.75
2018-10-07T22:34:07.604Z,58.70
2018-10-07T22:36:36.640Z,58.44
2018-10-07T22:39:06.719Z,58.52
2018-10-07T22:41:35.443Z,58.58
2018-10-07T22:44:04.458Z,58.75
2018-10-07T22:46:33.163Z,58.66
2018-10-07T22:49:01.787Z,59.00
2018-10-07T22:51:30.346Z,59.11
2018-10-07T22:54:00.049Z,59.41
2018-10-07T22:56:28.681Z,59.30
2018-10-07T22:58:57.305Z,59.15
2018-10-07T23:01:26.000Z,59.12
2018-10-07T23:03:54.596Z,58.94
2018-10-07T23:06:23.217Z,58.86
2018-10-07T23:08:52.568Z,59.02
2018-10-07T23:11:21.159Z,59.04
2018-10-07T23:13:49.749Z,59.29
2018-10-07T23:16:18.527Z,59.20
2018-10-07T23:18:47.160Z,59.15
2018-10-07T23:21:15.756Z,59.07
2018-10-07T23:23:44.752Z,58.83
2018-10-07T23:26:13.816Z,59.05
2018-10-07T23:28:42.399Z,59.40
2018-10-07T23:31:11.019Z,59.10
2018-10-07T23:33:39.644Z,59.09
2018-10-07T23:36:08.250Z,59.46
2018-10-07T23:38:36.939Z,58.67
2018-10-07T23:41:05.621Z,58.98
2018-10-07T23:43:34.207Z,58.79
2018-10-07T23:46:03.214Z,59.19
2018-10-07T23:48:31.795Z,59.20
2018-10-07T23:51:00.391Z,59.32
2018-10-07T23:53:29.290Z,59.39
2018-10-07T23:55:57.916Z,59.39
2018-10-07T23:58:26.759Z,59.29
